sensor_id;sensor_type;location;lat;lon;timestamp;P1;durP1;ratioP1;P2;durP2;ratioP2
16735;SDS011;17990;49.548;9.730;2022-09-29T00:00:16;8.73;;;5.03;;
16735;SDS011;17990;49.548;9.730;2022-09-29T00:02:43;9.30;;;4.70;;
16735;SDS011;17990;49.548;9.730;2022-09-29T00:05:11;7.47;;;5.13;;
16735;SDS011;17990;49.548;9.730;2022-09-29T00:07:38;15.27;;;5.47;;
16735;SDS011;17990;49.548;9.730;2022-09-29T00:10:05;8.43;;;5.17;;
16735;SDS011;17990;49.548;9.730;2022-09-29T00:12:32;10.50;;;5.60;;
16735;SDS011;17990;49.548;9.730;2022-09-29T00:14:59;8.73;;;5.63;;
16735;SDS011;17990;49.548;9.730;2022-09-29T00:17:26;7.90;;;6.00;;
16735;SDS011;17990;49.548;9.730;2022-09-29T00:19:53;12.03;;;5.30;;
16735;SDS011;17990;49.548;9.730;2022-09-29T00:22:21;9.97;;;5.70;;
16735;SDS011;17990;49.548;9.730;2022-09-29T00:24:48;7.53;;;4.90;;
16735;SDS011;17990;49.548;9.730;2022-09-29T00:27:15;8.63;;;5.23;;
16735;SDS011;17990;49.548;9.730;2022-09-29T00:29:43;6.47;;;4.57;;
16735;SDS011;17990;49.548;9.730;2022-09-29T00:32:10;8.67;;;4.93;;
16735;SDS011;17990;49.548;9.730;2022-09-29T00:34:37;9.60;;;4.53;;
16735;SDS011;17990;49.548;9.730;2022-09-29T00:37:04;7.27;;;4.00;;
16735;SDS011;17990;49.548;9.730;2022-09-29T00:39:32;6.97;;;4.10;;
16735;SDS011;17990;49.548;9.730;2022-09-29T00:41:59;7.10;;;4.10;;
16735;SDS011;17990;49.548;9.730;2022-09-29T00:47:24;6.17;;;3.93;;
16735;SDS011;17990;49.548;9.730;2022-09-29T00:49:53;4.93;;;4.00;;
16735;SDS011;17990;49.548;9.730;2022-09-29T00:52:24;6.17;;;4.20;;
16735;SDS011;17990;49.548;9.730;2022-09-29T00:54:57;10.70;;;4.77;;
16735;SDS011;17990;49.548;9.730;2022-09-29T00:57:30;6.30;;;3.93;;
16735;SDS011;17990;49.548;9.730;2022-09-29T01:00:04;7.77;;;4.37;;
16735;SDS011;17990;49.548;9.730;2022-09-29T01:02:35;5.80;;;4.30;;
16735;SDS011;17990;49.548;9.730;2022-09-29T01:05:07;6.20;;;4.23;;
16735;SDS011;17990;49.548;9.730;2022-09-29T01:07:38;7.00;;;4.17;;
16735;SDS011;17990;49.548;9.730;2022-09-29T01:10:09;6.53;;;4.20;;
16735;SDS011;17990;49.548;9.730;2022-09-29T01:12:38;7.20;;;4.00;;
16735;SDS011;17990;49.548;9.730;2022-09-29T01:15:05;9.33;;;4.73;;
16735;SDS011;17990;49.548;9.730;2022-09-29T01:17:33;5.77;;;3.90;;
16735;SDS011;17990;49.548;9.730;2022-09-29T01:20:02;4.73;;;4.03;;
16735;SDS011;17990;49.548;9.730;2022-09-29T01:26:08;7.93;;;5.33;;
16735;SDS011;17990;49.548;9.730;2022-09-29T01:32:09;7.97;;;5.00;;
16735;SDS011;17990;49.548;9.730;2022-09-29T01:34:47;8.03;;;4.67;;
16735;SDS011;17990;49.548;9.730;2022-09-29T01:37:27;7.20;;;4.50;;
16735;SDS011;17990;49.548;9.730;2022-09-29T01:40:08;7.23;;;4.23;;
16735;SDS011;17990;49.548;9.730;2022-09-29T01:42:41;8.23;;;4.47;;
16735;SDS011;17990;49.548;9.730;2022-09-29T01:45:22;10.73;;;4.30;;
16735;SDS011;17990;49.548;9.730;2022-09-29T01:47:56;6.27;;;4.33;;
16735;SDS011;17990;49.548;9.730;2022-09-29T01:50:31;5.03;;;3.67;;
16735;SDS011;17990;49.548;9.730;2022-09-29T01:53:04;4.37;;;3.40;;
16735;SDS011;17990;49.548;9.730;2022-09-29T01:55:37;10.33;;;4.00;;
16735;SDS011;17990;49.548;9.730;2022-09-29T01:58:12;7.67;;;3.90;;
16735;SDS011;17990;49.548;9.730;2022-09-29T02:00:45;8.17;;;4.00;;
16735;SDS011;17990;49.548;9.730;2022-09-29T02:03:17;6.73;;;3.90;;
16735;SDS011;17990;49.548;9.730;2022-09-29T02:05:51;5.77;;;3.87;;
16735;SDS011;17990;49.548;9.730;2022-09-29T02:08:24;9.87;;;4.27;;
16735;SDS011;17990;49.548;9.730;2022-09-29T02:10:58;6.90;;;3.90;;
16735;SDS011;17990;49.548;9.730;2022-09-29T02:13:31;8.70;;;4.20;;
16735;SDS011;17990;49.548;9.730;2022-09-29T02:16:07;8.10;;;4.43;;
16735;SDS011;17990;49.548;9.730;2022-09-29T02:18:41;9.80;;;4.83;;
16735;SDS011;17990;49.548;9.730;2022-09-29T02:21:14;6.67;;;5.03;;
16735;SDS011;17990;49.548;9.730;2022-09-29T02:23:42;7.73;;;5.03;;
16735;SDS011;17990;49.548;9.730;2022-09-29T02:26:09;9.30;;;6.23;;
16735;SDS011;17990;49.548;9.730;2022-09-29T02:28:38;8.37;;;4.70;;
16735;SDS011;17990;49.548;9.730;2022-09-29T02:31:07;11.20;;;5.07;;
16735;SDS011;17990;49.548;9.730;2022-09-29T02:33:34;10.73;;;5.17;;
16735;SDS011;17990;49.548;9.730;2022-09-29T02:36:07;8.50;;;5.37;;
16735;SDS011;17990;49.548;9.730;2022-09-29T02:38:46;11.87;;;5.90;;
16735;SDS011;17990;49.548;9.730;2022-09-29T02:41:25;9.90;;;5.50;;
16735;SDS011;17990;49.548;9.730;2022-09-29T02:44:24;14.67;;;7.37;;
16735;SDS011;17990;49.548;9.730;2022-09-29T02:47:17;9.67;;;6.27;;
16735;SDS011;17990;49.548;9.730;2022-09-29T02:50:09;10.33;;;5.83;;
16735;SDS011;17990;49.548;9.730;2022-09-29T02:53:11;10.73;;;6.67;;
16735;SDS011;17990;49.548;9.730;2022-09-29T02:55:53;9.00;;;6.30;;
16735;SDS011;17990;49.548;9.730;2022-09-29T02:58:31;12.20;;;5.93;;
16735;SDS011;17990;49.548;9.730;2022-09-29T03:01:04;12.50;;;6.50;;
16735;SDS011;17990;49.548;9.730;2022-09-29T03:03:32;9.40;;;5.83;;
16735;SDS011;17990;49.548;9.730;2022-09-29T03:05:59;9.77;;;5.93;;
16735;SDS011;17990;49.548;9.730;2022-09-29T03:08:28;9.80;;;6.00;;
16735;SDS011;17990;49.548;9.730;2022-09-29T03:10:56;10.60;;;5.90;;
16735;SDS011;17990;49.548;9.730;2022-09-29T03:13:23;9.30;;;6.60;;
16735;SDS011;17990;49.548;9.730;2022-09-29T03:15:50;11.13;;;7.10;;
16735;SDS011;17990;49.548;9.730;2022-09-29T03:18:17;11.83;;;6.90;;
16735;SDS011;17990;49.548;9.730;2022-09-29T03:20:46;12.47;;;7.47;;
16735;SDS011;17990;49.548;9.730;2022-09-29T03:23:13;11.40;;;6.67;;
16735;SDS011;17990;49.548;9.730;2022-09-29T03:25:42;12.70;;;7.07;;
16735;SDS011;17990;49.548;9.730;2022-09-29T03:28:09;9.60;;;6.90;;
16735;SDS011;17990;49.548;9.730;2022-09-29T03:30:36;13.40;;;7.17;;
16735;SDS011;17990;49.548;9.730;2022-09-29T03:33:03;14.90;;;6.83;;
16735;SDS011;17990;49.548;9.730;2022-09-29T03:35:30;13.37;;;7.47;;
16735;SDS011;17990;49.548;9.730;2022-09-29T03:37:57;13.53;;;7.30;;
16735;SDS011;17990;49.548;9.730;2022-09-29T03:40:24;12.10;;;7.20;;
16735;SDS011;17990;49.548;9.730;2022-09-29T03:42:53;9.47;;;7.33;;
16735;SDS011;17990;49.548;9.730;2022-09-29T03:45:20;12.27;;;7.80;;
16735;SDS011;17990;49.548;9.730;2022-09-29T03:47:47;14.83;;;8.07;;
16735;SDS011;17990;49.548;9.730;2022-09-29T03:50:14;25.33;;;15.50;;
16735;SDS011;17990;49.548;9.730;2022-09-29T03:52:41;20.80;;;13.80;;
16735;SDS011;17990;49.548;9.730;2022-09-29T03:55:08;11.70;;;7.67;;
16735;SDS011;17990;49.548;9.730;2022-09-29T03:57:35;11.97;;;7.10;;
16735;SDS011;17990;49.548;9.730;2022-09-29T04:00:03;13.33;;;6.67;;
16735;SDS011;17990;49.548;9.730;2022-09-29T04:02:31;13.90;;;6.00;;
16735;SDS011;17990;49.548;9.730;2022-09-29T04:04:59;10.10;;;5.77;;
16735;SDS011;17990;49.548;9.730;2022-09-29T04:07:26;10.07;;;5.80;;
16735;SDS011;17990;49.548;9.730;2022-09-29T04:09:53;11.70;;;6.10;;
16735;SDS011;17990;49.548;9.730;2022-09-29T04:12:20;9.93;;;5.90;;
16735;SDS011;17990;49.548;9.730;2022-09-29T04:14:47;13.23;;;7.13;;
16735;SDS011;17990;49.548;9.730;2022-09-29T04:17:15;13.93;;;7.17;;
16735;SDS011;17990;49.548;9.730;2022-09-29T04:19:42;13.67;;;7.40;;
16735;SDS011;17990;49.548;9.730;2022-09-29T04:22:09;9.73;;;6.60;;
16735;SDS011;17990;49.548;9.730;2022-09-29T04:24:37;17.33;;;9.47;;
16735;SDS011;17990;49.548;9.730;2022-09-29T04:27:04;30.97;;;12.87;;
16735;SDS011;17990;49.548;9.730;2022-09-29T04:29:31;26.03;;;11.17;;
16735;SDS011;17990;49.548;9.730;2022-09-29T04:31:58;15.87;;;9.07;;
16735;SDS011;17990;49.548;9.730;2022-09-29T04:34:26;34.23;;;8.00;;
16735;SDS011;17990;49.548;9.730;2022-09-29T04:36:53;12.90;;;7.77;;
16735;SDS011;17990;49.548;9.730;2022-09-29T04:39:23;13.87;;;7.60;;
16735;SDS011;17990;49.548;9.730;2022-09-29T04:41:50;11.97;;;8.07;;
16735;SDS011;17990;49.548;9.730;2022-09-29T04:44:17;17.40;;;9.63;;
16735;SDS011;17990;49.548;9.730;2022-09-29T04:46:48;25.17;;;12.43;;
16735;SDS011;17990;49.548;9.730;2022-09-29T04:49:15;32.47;;;15.53;;
16735;SDS011;17990;49.548;9.730;2022-09-29T04:51:43;26.17;;;14.27;;
16735;SDS011;17990;49.548;9.730;2022-09-29T04:54:10;18.23;;;10.07;;
16735;SDS011;17990;49.548;9.730;2022-09-29T04:56:37;14.87;;;9.10;;
16735;SDS011;17990;49.548;9.730;2022-09-29T04:59:04;14.30;;;9.03;;
16735;SDS011;17990;49.548;9.730;2022-09-29T05:01:32;15.33;;;9.57;;
16735;SDS011;17990;49.548;9.730;2022-09-29T05:03:59;13.30;;;8.87;;
16735;SDS011;17990;49.548;9.730;2022-09-29T05:06:27;13.07;;;8.70;;
16735;SDS011;17990;49.548;9.730;2022-09-29T05:08:55;17.97;;;8.33;;
16735;SDS011;17990;49.548;9.730;2022-09-29T05:11:22;13.77;;;7.50;;
16735;SDS011;17990;49.548;9.730;2022-09-29T05:13:49;13.17;;;7.80;;
16735;SDS011;17990;49.548;9.730;2022-09-29T05:16:16;10.20;;;7.23;;
16735;SDS011;17990;49.548;9.730;2022-09-29T05:18:43;11.07;;;7.40;;
16735;SDS011;17990;49.548;9.730;2022-09-29T05:21:10;10.37;;;7.03;;
16735;SDS011;17990;49.548;9.730;2022-09-29T05:23:36;12.40;;;7.50;;
16735;SDS011;17990;49.548;9.730;2022-09-29T05:26:05;12.03;;;7.10;;
16735;SDS011;17990;49.548;9.730;2022-09-29T05:28:34;12.03;;;8.00;;
16735;SDS011;17990;49.548;9.730;2022-09-29T05:31:01;10.37;;;7.33;;
16735;SDS011;17990;49.548;9.730;2022-09-29T05:33:30;19.67;;;10.27;;
16735;SDS011;17990;49.548;9.730;2022-09-29T05:35:57;19.10;;;11.67;;
16735;SDS011;17990;49.548;9.730;2022-09-29T05:38:25;15.33;;;10.33;;
16735;SDS011;17990;49.548;9.730;2022-09-29T05:40:52;21.10;;;13.03;;
16735;SDS011;17990;49.548;9.730;2022-09-29T05:43:20;20.63;;;11.00;;
16735;SDS011;17990;49.548;9.730;2022-09-29T05:45:47;19.10;;;10.30;;
16735;SDS011;17990;49.548;9.730;2022-09-29T05:48:14;16.07;;;8.70;;
16735;SDS011;17990;49.548;9.730;2022-09-29T05:50:41;17.83;;;7.87;;
16735;SDS011;17990;49.548;9.730;2022-09-29T05:53:09;13.47;;;7.50;;
16735;SDS011;17990;49.548;9.730;2022-09-29T05:55:37;15.73;;;8.20;;
16735;SDS011;17990;49.548;9.730;2022-09-29T05:58:04;16.87;;;10.20;;
16735;SDS011;17990;49.548;9.730;2022-09-29T06:00:33;19.77;;;8.47;;
16735;SDS011;17990;49.548;9.730;2022-09-29T06:03:00;11.67;;;7.03;;
16735;SDS011;17990;49.548;9.730;2022-09-29T06:05:27;13.63;;;7.97;;
16735;SDS011;17990;49.548;9.730;2022-09-29T06:07:54;11.13;;;7.33;;
16735;SDS011;17990;49.548;9.730;2022-09-29T06:10:22;12.90;;;7.20;;
16735;SDS011;17990;49.548;9.730;2022-09-29T06:12:49;12.53;;;7.20;;
16735;SDS011;17990;49.548;9.730;2022-09-29T06:15:16;9.97;;;6.73;;
16735;SDS011;17990;49.548;9.730;2022-09-29T06:17:44;12.67;;;6.93;;
16735;SDS011;17990;49.548;9.730;2022-09-29T06:20:11;13.17;;;8.57;;
16735;SDS011;17990;49.548;9.730;2022-09-29T06:22:38;20.50;;;10.53;;
16735;SDS011;17990;49.548;9.730;2022-09-29T06:25:06;20.97;;;10.67;;
16735;SDS011;17990;49.548;9.730;2022-09-29T06:27:33;15.37;;;8.57;;
16735;SDS011;17990;49.548;9.730;2022-09-29T06:30:00;10.47;;;6.73;;
16735;SDS011;17990;49.548;9.730;2022-09-29T06:32:27;12.73;;;6.50;;
16735;SDS011;17990;49.548;9.730;2022-09-29T06:34:55;13.03;;;6.17;;
16735;SDS011;17990;49.548;9.730;2022-09-29T06:37:39;10.30;;;5.73;;
16735;SDS011;17990;49.548;9.730;2022-09-29T06:40:10;15.30;;;6.13;;
16735;SDS011;17990;49.548;9.730;2022-09-29T06:42:38;9.23;;;5.43;;
16735;SDS011;17990;49.548;9.730;2022-09-29T06:45:06;9.17;;;5.27;;
16735;SDS011;17990;49.548;9.730;2022-09-29T06:47:35;8.63;;;5.60;;
16735;SDS011;17990;49.548;9.730;2022-09-29T06:50:03;9.47;;;5.10;;
16735;SDS011;17990;49.548;9.730;2022-09-29T06:52:31;14.97;;;5.13;;
16735;SDS011;17990;49.548;9.730;2022-09-29T06:54:58;11.80;;;4.50;;
16735;SDS011;17990;49.548;9.730;2022-09-29T06:57:25;6.10;;;4.53;;
16735;SDS011;17990;49.548;9.730;2022-09-29T06:59:52;11.47;;;4.80;;
16735;SDS011;17990;49.548;9.730;2022-09-29T07:02:19;6.43;;;4.17;;
16735;SDS011;17990;49.548;9.730;2022-09-29T07:04:46;6.03;;;4.30;;
16735;SDS011;17990;49.548;9.730;2022-09-29T07:07:14;8.17;;;4.30;;
16735;SDS011;17990;49.548;9.730;2022-09-29T07:09:41;5.47;;;3.90;;
16735;SDS011;17990;49.548;9.730;2022-09-29T07:12:09;14.87;;;3.80;;
16735;SDS011;17990;49.548;9.730;2022-09-29T07:14:36;7.07;;;4.40;;
16735;SDS011;17990;49.548;9.730;2022-09-29T07:17:03;6.63;;;4.17;;
16735;SDS011;17990;49.548;9.730;2022-09-29T07:19:30;8.23;;;4.30;;
16735;SDS011;17990;49.548;9.730;2022-09-29T07:21:57;11.30;;;4.23;;
16735;SDS011;17990;49.548;9.730;2022-09-29T07:24:25;12.43;;;6.53;;
16735;SDS011;17990;49.548;9.730;2022-09-29T07:26:52;7.20;;;3.90;;
16735;SDS011;17990;49.548;9.730;2022-09-29T07:29:19;4.97;;;3.33;;
16735;SDS011;17990;49.548;9.730;2022-09-29T07:31:46;7.67;;;4.30;;
16735;SDS011;17990;49.548;9.730;2022-09-29T07:34:16;6.80;;;4.37;;
16735;SDS011;17990;49.548;9.730;2022-09-29T07:36:43;6.47;;;3.70;;
16735;SDS011;17990;49.548;9.730;2022-09-29T07:39:10;5.07;;;3.27;;
16735;SDS011;17990;49.548;9.730;2022-09-29T07:41:38;7.47;;;4.03;;
16735;SDS011;17990;49.548;9.730;2022-09-29T07:44:05;7.80;;;3.73;;
16735;SDS011;17990;49.548;9.730;2022-09-29T07:46:32;9.47;;;3.67;;
16735;SDS011;17990;49.548;9.730;2022-09-29T07:48:59;6.50;;;3.97;;
16735;SDS011;17990;49.548;9.730;2022-09-29T07:51:26;6.33;;;3.57;;
16735;SDS011;17990;49.548;9.730;2022-09-29T07:53:53;5.33;;;3.40;;
16735;SDS011;17990;49.548;9.730;2022-09-29T07:56:21;8.07;;;4.20;;
16735;SDS011;17990;49.548;9.730;2022-09-29T07:58:50;8.77;;;3.87;;
16735;SDS011;17990;49.548;9.730;2022-09-29T08:01:17;8.07;;;4.10;;
16735;SDS011;17990;49.548;9.730;2022-09-29T08:03:48;7.03;;;4.03;;
16735;SDS011;17990;49.548;9.730;2022-09-29T08:06:18;10.23;;;4.33;;
16735;SDS011;17990;49.548;9.730;2022-09-29T08:08:45;11.27;;;4.63;;
16735;SDS011;17990;49.548;9.730;2022-09-29T08:11:14;5.80;;;3.97;;
16735;SDS011;17990;49.548;9.730;2022-09-29T08:13:44;12.63;;;4.37;;
16735;SDS011;17990;49.548;9.730;2022-09-29T08:16:13;5.90;;;4.10;;
16735;SDS011;17990;49.548;9.730;2022-09-29T08:18:41;12.80;;;5.00;;
16735;SDS011;17990;49.548;9.730;2022-09-29T08:21:09;7.07;;;4.90;;
16735;SDS011;17990;49.548;9.730;2022-09-29T08:23:37;9.37;;;4.97;;
16735;SDS011;17990;49.548;9.730;2022-09-29T08:26:06;8.80;;;5.23;;
16735;SDS011;17990;49.548;9.730;2022-09-29T08:28:35;8.63;;;4.40;;
16735;SDS011;17990;49.548;9.730;2022-09-29T08:31:04;8.60;;;5.03;;
16735;SDS011;17990;49.548;9.730;2022-09-29T08:33:34;8.40;;;4.80;;
16735;SDS011;17990;49.548;9.730;2022-09-29T08:36:02;6.60;;;4.30;;
16735;SDS011;17990;49.548;9.730;2022-09-29T08:38:38;8.80;;;5.03;;
16735;SDS011;17990;49.548;9.730;2022-09-29T08:41:09;9.93;;;5.03;;
16735;SDS011;17990;49.548;9.730;2022-09-29T08:43:58;6.33;;;4.30;;
16735;SDS011;17990;49.548;9.730;2022-09-29T08:46:30;7.13;;;4.23;;
16735;SDS011;17990;49.548;9.730;2022-09-29T08:49:04;8.23;;;4.40;;
16735;SDS011;17990;49.548;9.730;2022-09-29T08:51:37;6.90;;;4.30;;
16735;SDS011;17990;49.548;9.730;2022-09-29T08:54:14;6.40;;;4.37;;
16735;SDS011;17990;49.548;9.730;2022-09-29T08:56:49;8.13;;;4.40;;
16735;SDS011;17990;49.548;9.730;2022-09-29T08:59:16;9.00;;;5.17;;
16735;SDS011;17990;49.548;9.730;2022-09-29T09:01:47;10.53;;;4.90;;
16735;SDS011;17990;49.548;9.730;2022-09-29T09:04:36;8.37;;;4.93;;
16735;SDS011;17990;49.548;9.730;2022-09-29T09:07:23;7.77;;;4.40;;
16735;SDS011;17990;49.548;9.730;2022-09-29T09:10:08;10.60;;;5.10;;
16735;SDS011;17990;49.548;9.730;2022-09-29T09:15:53;9.60;;;4.80;;
16735;SDS011;17990;49.548;9.730;2022-09-29T09:21:35;11.77;;;4.33;;
16735;SDS011;17990;49.548;9.730;2022-09-29T09:26:54;9.33;;;4.43;;
16735;SDS011;17990;49.548;9.730;2022-09-29T09:29:24;7.30;;;5.10;;
16735;SDS011;17990;49.548;9.730;2022-09-29T09:31:58;9.33;;;4.40;;
16735;SDS011;17990;49.548;9.730;2022-09-29T09:34:33;8.10;;;4.13;;
16735;SDS011;17990;49.548;9.730;2022-09-29T09:37:07;8.63;;;4.40;;
16735;SDS011;17990;49.548;9.730;2022-09-29T09:39:41;7.93;;;4.20;;
16735;SDS011;17990;49.548;9.730;2022-09-29T09:42:14;5.30;;;3.87;;
16735;SDS011;17990;49.548;9.730;2022-09-29T09:44:45;6.43;;;4.20;;
16735;SDS011;17990;49.548;9.730;2022-09-29T09:47:19;6.83;;;4.20;;
16735;SDS011;17990;49.548;9.730;2022-09-29T09:49:52;6.43;;;4.40;;
16735;SDS011;17990;49.548;9.730;2022-09-29T09:52:26;7.30;;;3.80;;
16735;SDS011;17990;49.548;9.730;2022-09-29T09:55:02;12.13;;;6.23;;
16735;SDS011;17990;49.548;9.730;2022-09-29T09:57:38;8.20;;;4.33;;
16735;SDS011;17990;49.548;9.730;2022-09-29T10:00:17;8.80;;;3.97;;
16735;SDS011;17990;49.548;9.730;2022-09-29T10:02:48;7.70;;;3.53;;
16735;SDS011;17990;49.548;9.730;2022-09-29T10:05:18;8.23;;;3.97;;
16735;SDS011;17990;49.548;9.730;2022-09-29T10:07:49;4.37;;;3.13;;
16735;SDS011;17990;49.548;9.730;2022-09-29T10:10:18;5.57;;;2.93;;
16735;SDS011;17990;49.548;9.730;2022-09-29T10:12:48;6.73;;;3.37;;
16735;SDS011;17990;49.548;9.730;2022-09-29T10:15:22;7.60;;;2.77;;
16735;SDS011;17990;49.548;9.730;2022-09-29T10:17:58;7.10;;;2.97;;
16735;SDS011;17990;49.548;9.730;2022-09-29T10:20:32;6.40;;;3.77;;
16735;SDS011;17990;49.548;9.730;2022-09-29T10:23:18;6.47;;;2.90;;
16735;SDS011;17990;49.548;9.730;2022-09-29T10:26:03;7.70;;;3.80;;
16735;SDS011;17990;49.548;9.730;2022-09-29T10:28:38;5.77;;;2.50;;
16735;SDS011;17990;49.548;9.730;2022-09-29T10:31:16;5.27;;;2.80;;
16735;SDS011;17990;49.548;9.730;2022-09-29T10:33:48;17.40;;;9.03;;
16735;SDS011;17990;49.548;9.730;2022-09-29T10:36:19;10.37;;;4.53;;
16735;SDS011;17990;49.548;9.730;2022-09-29T10:38:50;10.87;;;4.43;;
16735;SDS011;17990;49.548;9.730;2022-09-29T10:41:18;19.50;;;9.53;;
16735;SDS011;17990;49.548;9.730;2022-09-29T10:43:46;7.03;;;4.47;;
16735;SDS011;17990;49.548;9.730;2022-09-29T10:46:33;7.40;;;3.53;;
16735;SDS011;17990;49.548;9.730;2022-09-29T10:49:07;6.77;;;2.20;;
16735;SDS011;17990;49.548;9.730;2022-09-29T10:51:39;6.30;;;2.40;;
16735;SDS011;17990;49.548;9.730;2022-09-29T10:54:09;14.17;;;4.40;;
16735;SDS011;17990;49.548;9.730;2022-09-29T10:56:43;4.83;;;3.80;;
16735;SDS011;17990;49.548;9.730;2022-09-29T10:59:13;4.80;;;3.67;;
16735;SDS011;17990;49.548;9.730;2022-09-29T11:01:43;6.23;;;3.40;;
16735;SDS011;17990;49.548;9.730;2022-09-29T11:04:14;8.27;;;4.40;;
16735;SDS011;17990;49.548;9.730;2022-09-29T11:06:47;6.60;;;4.03;;
16735;SDS011;17990;49.548;9.730;2022-09-29T11:09:29;6.07;;;4.30;;
16735;SDS011;17990;49.548;9.730;2022-09-29T11:12:04;26.67;;;9.73;;
16735;SDS011;17990;49.548;9.730;2022-09-29T11:14:51;9.07;;;4.43;;
16735;SDS011;17990;49.548;9.730;2022-09-29T11:17:19;8.80;;;5.03;;
16735;SDS011;17990;49.548;9.730;2022-09-29T11:19:48;6.80;;;4.77;;
16735;SDS011;17990;49.548;9.730;2022-09-29T11:22:19;8.00;;;4.83;;
16735;SDS011;17990;49.548;9.730;2022-09-29T11:28:24;9.60;;;4.90;;
16735;SDS011;17990;49.548;9.730;2022-09-29T11:31:37;12.27;;;4.70;;
16735;SDS011;17990;49.548;9.730;2022-09-29T11:34:18;7.53;;;4.07;;
16735;SDS011;17990;49.548;9.730;2022-09-29T11:37:10;9.60;;;4.97;;
16735;SDS011;17990;49.548;9.730;2022-09-29T11:39:49;6.00;;;3.60;;
16735;SDS011;17990;49.548;9.730;2022-09-29T11:42:29;7.60;;;3.90;;
16735;SDS011;17990;49.548;9.730;2022-09-29T11:45:15;8.13;;;4.17;;
16735;SDS011;17990;49.548;9.730;2022-09-29T11:47:55;7.90;;;4.40;;
16735;SDS011;17990;49.548;9.730;2022-09-29T11:50:46;7.03;;;3.50;;
16735;SDS011;17990;49.548;9.730;2022-09-29T11:53:25;5.33;;;3.30;;
16735;SDS011;17990;49.548;9.730;2022-09-29T11:56:17;5.67;;;3.97;;
16735;SDS011;17990;49.548;9.730;2022-09-29T11:59:03;4.33;;;2.93;;
16735;SDS011;17990;49.548;9.730;2022-09-29T12:02:00;3.37;;;2.40;;
16735;SDS011;17990;49.548;9.730;2022-09-29T12:04:55;7.80;;;2.50;;
16735;SDS011;17990;49.548;9.730;2022-09-29T12:07:32;4.93;;;2.13;;
16735;SDS011;17990;49.548;9.730;2022-09-29T12:10:14;5.87;;;2.03;;
16735;SDS011;17990;49.548;9.730;2022-09-29T12:12:53;5.77;;;2.27;;
16735;SDS011;17990;49.548;9.730;2022-09-29T12:15:32;18.33;;;5.10;;
16735;SDS011;17990;49.548;9.730;2022-09-29T12:18:10;9.27;;;3.90;;
16735;SDS011;17990;49.548;9.730;2022-09-29T12:20:41;4.67;;;1.87;;
16735;SDS011;17990;49.548;9.730;2022-09-29T12:23:11;4.07;;;1.40;;
16735;SDS011;17990;49.548;9.730;2022-09-29T12:25:42;6.40;;;1.40;;
16735;SDS011;17990;49.548;9.730;2022-09-29T12:28:19;3.97;;;1.20;;
16735;SDS011;17990;49.548;9.730;2022-09-29T12:30:55;12.93;;;3.57;;
16735;SDS011;17990;49.548;9.730;2022-09-29T12:33:28;6.07;;;2.20;;
16735;SDS011;17990;49.548;9.730;2022-09-29T12:36:03;5.33;;;2.00;;
16735;SDS011;17990;49.548;9.730;2022-09-29T12:38:59;4.47;;;1.50;;
16735;SDS011;17990;49.548;9.730;2022-09-29T12:41:32;6.00;;;1.40;;
16735;SDS011;17990;49.548;9.730;2022-09-29T12:44:05;3.83;;;1.00;;
16735;SDS011;17990;49.548;9.730;2022-09-29T12:46:43;6.93;;;1.60;;
16735;SDS011;17990;49.548;9.730;2022-09-29T12:49:16;4.27;;;2.27;;
16735;SDS011;17990;49.548;9.730;2022-09-29T12:51:48;5.40;;;2.30;;
16735;SDS011;17990;49.548;9.730;2022-09-29T12:54:17;2.73;;;1.03;;
16735;SDS011;17990;49.548;9.730;2022-09-29T12:56:50;6.17;;;1.57;;
16735;SDS011;17990;49.548;9.730;2022-09-29T12:59:27;6.67;;;1.57;;
16735;SDS011;17990;49.548;9.730;2022-09-29T13:02:04;3.83;;;1.20;;
16735;SDS011;17990;49.548;9.730;2022-09-29T13:05:08;5.07;;;1.33;;
16735;SDS011;17990;49.548;9.730;2022-09-29T13:07:53;3.93;;;1.27;;
16735;SDS011;17990;49.548;9.730;2022-09-29T13:11:01;4.60;;;1.30;;
16735;SDS011;17990;49.548;9.730;2022-09-29T13:14:19;3.27;;;1.20;;
16735;SDS011;17990;49.548;9.730;2022-09-29T13:17:12;4.40;;;1.33;;
16735;SDS011;17990;49.548;9.730;2022-09-29T13:20:01;5.73;;;1.30;;
16735;SDS011;17990;49.548;9.730;2022-09-29T13:26:18;4.03;;;1.10;;
16735;SDS011;17990;49.548;9.730;2022-09-29T13:29:15;2.57;;;1.30;;
16735;SDS011;17990;49.548;9.730;2022-09-29T13:31:46;3.30;;;1.20;;
16735;SDS011;17990;49.548;9.730;2022-09-29T13:34:21;3.83;;;1.07;;
16735;SDS011;17990;49.548;9.730;2022-09-29T13:37:02;2.00;;;0.97;;
16735;SDS011;17990;49.548;9.730;2022-09-29T13:39:32;1.87;;;0.90;;
16735;SDS011;17990;49.548;9.730;2022-09-29T13:54:34;3.80;;;1.00;;
16735;SDS011;17990;49.548;9.730;2022-09-29T14:02:45;2.70;;;0.80;;
16735;SDS011;17990;49.548;9.730;2022-09-29T14:05:52;4.90;;;1.00;;
16735;SDS011;17990;49.548;9.730;2022-09-29T14:08:30;3.27;;;1.00;;
16735;SDS011;17990;49.548;9.730;2022-09-29T14:11:06;1.80;;;1.00;;
16735;SDS011;17990;49.548;9.730;2022-09-29T14:13:42;2.43;;;1.00;;
16735;SDS011;17990;49.548;9.730;2022-09-29T14:19:15;3.77;;;1.70;;
16735;SDS011;17990;49.548;9.730;2022-09-29T14:21:59;3.07;;;1.30;;
16735;SDS011;17990;49.548;9.730;2022-09-29T14:24:42;4.80;;;1.40;;
16735;SDS011;17990;49.548;9.730;2022-09-29T14:27:18;3.07;;;1.30;;
16735;SDS011;17990;49.548;9.730;2022-09-29T14:30:13;1.97;;;0.70;;
16735;SDS011;17990;49.548;9.730;2022-09-29T14:32:54;3.30;;;0.80;;
16735;SDS011;17990;49.548;9.730;2022-09-29T14:35:24;3.50;;;0.80;;
16735;SDS011;17990;49.548;9.730;2022-09-29T14:38:00;9.07;;;1.10;;
16735;SDS011;17990;49.548;9.730;2022-09-29T14:40:33;1.60;;;0.60;;
16735;SDS011;17990;49.548;9.730;2022-09-29T14:43:13;3.10;;;1.00;;
16735;SDS011;17990;49.548;9.730;2022-09-29T14:49:29;5.40;;;1.73;;
16735;SDS011;17990;49.548;9.730;2022-09-29T14:52:41;7.73;;;4.70;;
16735;SDS011;17990;49.548;9.730;2022-09-29T14:55:24;14.10;;;6.70;;
16735;SDS011;17990;49.548;9.730;2022-09-29T14:58:01;10.00;;;6.00;;
16735;SDS011;17990;49.548;9.730;2022-09-29T15:00:47;7.17;;;4.37;;
16735;SDS011;17990;49.548;9.730;2022-09-29T15:03:27;4.87;;;2.13;;
16735;SDS011;17990;49.548;9.730;2022-09-29T15:06:05;7.03;;;4.00;;
16735;SDS011;17990;49.548;9.730;2022-09-29T15:08:38;3.47;;;2.17;;
16735;SDS011;17990;49.548;9.730;2022-09-29T15:11:26;4.17;;;1.70;;
16735;SDS011;17990;49.548;9.730;2022-09-29T15:13:59;3.27;;;1.50;;
16735;SDS011;17990;49.548;9.730;2022-09-29T15:16:32;1.90;;;1.40;;
16735;SDS011;17990;49.548;9.730;2022-09-29T15:22:14;2.90;;;1.40;;
16735;SDS011;17990;49.548;9.730;2022-09-29T15:25:21;3.40;;;1.70;;
16735;SDS011;17990;49.548;9.730;2022-09-29T15:27:54;9.57;;;4.53;;
16735;SDS011;17990;49.548;9.730;2022-09-29T15:30:26;10.30;;;5.93;;
16735;SDS011;17990;49.548;9.730;2022-09-29T15:33:00;3.97;;;1.50;;
16735;SDS011;17990;49.548;9.730;2022-09-29T15:35:47;4.47;;;1.10;;
16735;SDS011;17990;49.548;9.730;2022-09-29T15:38:25;5.30;;;0.83;;
16735;SDS011;17990;49.548;9.730;2022-09-29T15:40:58;2.83;;;1.30;;
16735;SDS011;17990;49.548;9.730;2022-09-29T15:43:29;4.30;;;1.90;;
16735;SDS011;17990;49.548;9.730;2022-09-29T15:46:14;3.90;;;2.10;;
16735;SDS011;17990;49.548;9.730;2022-09-29T15:49:04;2.90;;;1.40;;
16735;SDS011;17990;49.548;9.730;2022-09-29T15:51:35;3.73;;;1.50;;
16735;SDS011;17990;49.548;9.730;2022-09-29T15:54:03;13.37;;;4.70;;
16735;SDS011;17990;49.548;9.730;2022-09-29T15:56:33;10.27;;;4.20;;
16735;SDS011;17990;49.548;9.730;2022-09-29T15:59:28;32.40;;;14.03;;
16735;SDS011;17990;49.548;9.730;2022-09-29T16:02:10;25.17;;;10.77;;
16735;SDS011;17990;49.548;9.730;2022-09-29T16:04:47;11.30;;;6.40;;
16735;SDS011;17990;49.548;9.730;2022-09-29T16:07:20;2.77;;;1.20;;
16735;SDS011;17990;49.548;9.730;2022-09-29T16:09:52;2.43;;;1.20;;
16735;SDS011;17990;49.548;9.730;2022-09-29T16:12:25;3.47;;;1.33;;